sensor_id;sensor_type;location;lat;lon;timestamp;temperature;humidity
25352;DHT22;13304;48.464;8.712;2023-06-14T00:00:51;18.90;46.20
25352;DHT22;13304;48.464;8.712;2023-06-14T00:03:18;18.80;46.30
25352;DHT22;13304;48.464;8.712;2023-06-14T00:05:45;18.80;46.30
25352;DHT22;13304;48.464;8.712;2023-06-14T00:08:12;18.80;46.40
25352;DHT22;13304;48.464;8.712;2023-06-14T00:10:38;18.70;46.60
25352;DHT22;13304;48.464;8.712;2023-06-14T00:13:06;18.70;46.60
25352;DHT22;13304;48.464;8.712;2023-06-14T00:15:32;18.70;46.70
25352;DHT22;13304;48.464;8.712;2023-06-14T00:17:59;18.60;46.80
25352;DHT22;13304;48.464;8.712;2023-06-14T00:20:28;18.60;46.90
25352;DHT22;13304;48.464;8.712;2023-06-14T00:22:54;18.50;46.90
25352;DHT22;13304;48.464;8.712;2023-06-14T00:25:24;18.50;46.90
25352;DHT22;13304;48.464;8.712;2023-06-14T00:27:51;18.50;47.00
25352;DHT22;13304;48.464;8.712;2023-06-14T00:30:17;18.40;47.20
25352;DHT22;13304;48.464;8.712;2023-06-14T00:32:44;18.40;47.50
25352;DHT22;13304;48.464;8.712;2023-06-14T00:35:10;18.40;47.50
25352;DHT22;13304;48.464;8.712;2023-06-14T00:37:36;18.40;47.50
25352;DHT22;13304;48.464;8.712;2023-06-14T00:40:03;18.30;47.40
25352;DHT22;13304;48.464;8.712;2023-06-14T00:42:30;18.30;47.60
25352;DHT22;13304;48.464;8.712;2023-06-14T00:44:56;18.30;47.80
25352;DHT22;13304;48.464;8.712;2023-06-14T00:47:22;18.20;47.90
25352;DHT22;13304;48.464;8.712;2023-06-14T00:49:49;18.20;47.60
25352;DHT22;13304;48.464;8.712;2023-06-14T00:52:17;18.10;47.50
25352;DHT22;13304;48.464;8.712;2023-06-14T00:54:42;18.00;47.40
25352;DHT22;13304;48.464;8.712;2023-06-14T00:57:09;18.00;47.50
25352;DHT22;13304;48.464;8.712;2023-06-14T00:59:47;17.90;47.40
25352;DHT22;13304;48.464;8.712;2023-06-14T01:02:14;17.90;47.80
25352;DHT22;13304;48.464;8.712;2023-06-14T01:04:41;17.90;47.90
25352;DHT22;13304;48.464;8.712;2023-06-14T01:13:07;17.70;48.60
25352;DHT22;13304;48.464;8.712;2023-06-14T01:15:37;17.70;48.70
25352;DHT22;13304;48.464;8.712;2023-06-14T01:18:04;17.70;48.40
25352;DHT22;13304;48.464;8.712;2023-06-14T01:20:32;17.70;48.60
25352;DHT22;13304;48.464;8.712;2023-06-14T01:22:59;17.60;48.80
25352;DHT22;13304;48.464;8.712;2023-06-14T01:25:25;17.60;48.80
25352;DHT22;13304;48.464;8.712;2023-06-14T01:28:03;17.60;48.80
25352;DHT22;13304;48.464;8.712;2023-06-14T01:30:31;17.50;49.10
25352;DHT22;13304;48.464;8.712;2023-06-14T01:32:58;17.50;48.90
25352;DHT22;13304;48.464;8.712;2023-06-14T01:35:25;17.50;48.90
25352;DHT22;13304;48.464;8.712;2023-06-14T01:37:51;17.50;49.10
25352;DHT22;13304;48.464;8.712;2023-06-14T01:40:18;17.50;49.20
25352;DHT22;13304;48.464;8.712;2023-06-14T01:42:46;17.50;49.60
25352;DHT22;13304;48.464;8.712;2023-06-14T01:45:13;17.40;49.30
25352;DHT22;13304;48.464;8.712;2023-06-14T01:47:40;17.40;49.40
25352;DHT22;13304;48.464;8.712;2023-06-14T01:50:06;17.40;49.70
25352;DHT22;13304;48.464;8.712;2023-06-14T01:52:32;17.30;49.60
25352;DHT22;13304;48.464;8.712;2023-06-14T01:54:58;17.30;49.60
25352;DHT22;13304;48.464;8.712;2023-06-14T01:57:28;17.20;49.80
25352;DHT22;13304;48.464;8.712;2023-06-14T01:59:54;17.20;50.00
25352;DHT22;13304;48.464;8.712;2023-06-14T02:02:20;17.20;50.10
25352;DHT22;13304;48.464;8.712;2023-06-14T02:04:46;17.10;50.30
25352;DHT22;13304;48.464;8.712;2023-06-14T02:07:13;17.10;50.30
25352;DHT22;13304;48.464;8.712;2023-06-14T02:09:43;17.10;50.20
25352;DHT22;13304;48.464;8.712;2023-06-14T02:12:09;17.10;50.30
25352;DHT22;13304;48.464;8.712;2023-06-14T02:14:36;17.00;50.30
25352;DHT22;13304;48.464;8.712;2023-06-14T02:17:01;17.00;50.30
25352;DHT22;13304;48.464;8.712;2023-06-14T02:19:27;17.00;50.50
25352;DHT22;13304;48.464;8.712;2023-06-14T02:21:53;17.00;50.40
25352;DHT22;13304;48.464;8.712;2023-06-14T02:24:18;16.90;50.50
25352;DHT22;13304;48.464;8.712;2023-06-14T02:26:44;16.90;50.60
25352;DHT22;13304;48.464;8.712;2023-06-14T02:29:10;16.90;50.70
25352;DHT22;13304;48.464;8.712;2023-06-14T02:31:38;16.80;50.60
25352;DHT22;13304;48.464;8.712;2023-06-14T02:34:04;16.80;50.60
25352;DHT22;13304;48.464;8.712;2023-06-14T02:36:30;16.80;50.80
25352;DHT22;13304;48.464;8.712;2023-06-14T02:38:56;16.80;50.90
25352;DHT22;13304;48.464;8.712;2023-06-14T02:41:25;16.70;50.90
25352;DHT22;13304;48.464;8.712;2023-06-14T02:43:52;16.70;50.90
25352;DHT22;13304;48.464;8.712;2023-06-14T02:46:18;16.70;51.00
25352;DHT22;13304;48.464;8.712;2023-06-14T02:48:44;16.70;51.10
25352;DHT22;13304;48.464;8.712;2023-06-14T02:51:10;16.60;51.00
25352;DHT22;13304;48.464;8.712;2023-06-14T02:53:38;16.70;51.10
25352;DHT22;13304;48.464;8.712;2023-06-14T02:56:04;16.60;51.10
25352;DHT22;13304;48.464;8.712;2023-06-14T02:58:30;16.60;51.20
25352;DHT22;13304;48.464;8.712;2023-06-14T03:00:56;16.60;51.60
25352;DHT22;13304;48.464;8.712;2023-06-14T03:03:21;16.50;51.70
25352;DHT22;13304;48.464;8.712;2023-06-14T03:05:50;16.50;51.80
25352;DHT22;13304;48.464;8.712;2023-06-14T03:08:17;16.40;51.60
25352;DHT22;13304;48.464;8.712;2023-06-14T03:10:47;16.40;51.50
25352;DHT22;13304;48.464;8.712;2023-06-14T03:13:14;16.30;51.70
25352;DHT22;13304;48.464;8.712;2023-06-14T03:15:39;16.30;51.70
25352;DHT22;13304;48.464;8.712;2023-06-14T03:18:10;16.30;51.80
25352;DHT22;13304;48.464;8.712;2023-06-14T03:20:38;16.20;51.90
25352;DHT22;13304;48.464;8.712;2023-06-14T03:23:04;16.20;52.00
25352;DHT22;13304;48.464;8.712;2023-06-14T03:25:31;16.20;52.00
25352;DHT22;13304;48.464;8.712;2023-06-14T03:28:01;16.20;52.20
25352;DHT22;13304;48.464;8.712;2023-06-14T03:33:50;16.20;52.60
25352;DHT22;13304;48.464;8.712;2023-06-14T03:36:15;16.20;52.20
25352;DHT22;13304;48.464;8.712;2023-06-14T03:38:41;16.20;52.30
25352;DHT22;13304;48.464;8.712;2023-06-14T03:41:07;16.20;52.30
25352;DHT22;13304;48.464;8.712;2023-06-14T03:43:32;16.10;52.30
25352;DHT22;13304;48.464;8.712;2023-06-14T03:45:58;16.10;52.30
25352;DHT22;13304;48.464;8.712;2023-06-14T03:48:24;16.10;52.40
25352;DHT22;13304;48.464;8.712;2023-06-14T03:50:50;16.10;52.40
25352;DHT22;13304;48.464;8.712;2023-06-14T03:53:16;16.10;52.50
25352;DHT22;13304;48.464;8.712;2023-06-14T03:55:42;16.00;52.50
25352;DHT22;13304;48.464;8.712;2023-06-14T03:58:08;16.00;52.60
25352;DHT22;13304;48.464;8.712;2023-06-14T04:00:33;16.00;52.90
25352;DHT22;13304;48.464;8.712;2023-06-14T04:02:59;16.00;53.30
25352;DHT22;13304;48.464;8.712;2023-06-14T04:05:25;16.00;53.00
25352;DHT22;13304;48.464;8.712;2023-06-14T04:07:52;15.90;53.40
25352;DHT22;13304;48.464;8.712;2023-06-14T04:10:17;15.90;53.50
25352;DHT22;13304;48.464;8.712;2023-06-14T04:12:43;15.90;53.30
25352;DHT22;13304;48.464;8.712;2023-06-14T04:15:09;15.80;53.70
25352;DHT22;13304;48.464;8.712;2023-06-14T04:17:36;15.80;53.90
25352;DHT22;13304;48.464;8.712;2023-06-14T04:20:02;15.70;54.10
25352;DHT22;13304;48.464;8.712;2023-06-14T04:22:34;15.70;54.30
25352;DHT22;13304;48.464;8.712;2023-06-14T04:25:00;15.60;54.60
25352;DHT22;13304;48.464;8.712;2023-06-14T04:27:26;15.60;54.30
25352;DHT22;13304;48.464;8.712;2023-06-14T04:29:53;15.60;54.50
25352;DHT22;13304;48.464;8.712;2023-06-14T04:32:28;15.60;54.70
25352;DHT22;13304;48.464;8.712;2023-06-14T04:35:16;15.60;54.80
25352;DHT22;13304;48.464;8.712;2023-06-14T04:37:42;15.70;55.10
25352;DHT22;13304;48.464;8.712;2023-06-14T04:40:09;15.70;55.30
25352;DHT22;13304;48.464;8.712;2023-06-14T04:42:35;15.80;55.70
25352;DHT22;13304;48.464;8.712;2023-06-14T04:45:02;15.90;55.60
25352;DHT22;13304;48.464;8.712;2023-06-14T04:47:28;16.00;55.70
25352;DHT22;13304;48.464;8.712;2023-06-14T04:49:59;16.10;55.50
25352;DHT22;13304;48.464;8.712;2023-06-14T04:52:26;16.20;55.30
25352;DHT22;13304;48.464;8.712;2023-06-14T04:54:52;16.30;55.10
25352;DHT22;13304;48.464;8.712;2023-06-14T04:57:19;16.40;54.90
25352;DHT22;13304;48.464;8.712;2023-06-14T04:59:47;16.50;54.80
25352;DHT22;13304;48.464;8.712;2023-06-14T05:02:13;16.50;54.70
25352;DHT22;13304;48.464;8.712;2023-06-14T05:04:40;16.60;54.50
25352;DHT22;13304;48.464;8.712;2023-06-14T05:07:09;16.60;54.40
25352;DHT22;13304;48.464;8.712;2023-06-14T05:09:35;16.70;54.30
25352;DHT22;13304;48.464;8.712;2023-06-14T05:12:02;16.60;54.00
25352;DHT22;13304;48.464;8.712;2023-06-14T05:14:28;16.80;53.80
25352;DHT22;13304;48.464;8.712;2023-06-14T05:16:54;16.90;53.80
25352;DHT22;13304;48.464;8.712;2023-06-14T05:19:19;16.90;53.80
25352;DHT22;13304;48.464;8.712;2023-06-14T05:21:47;17.00;53.90
25352;DHT22;13304;48.464;8.712;2023-06-14T05:24:13;17.00;53.80
25352;DHT22;13304;48.464;8.712;2023-06-14T05:26:39;17.10;53.90
25352;DHT22;13304;48.464;8.712;2023-06-14T05:29:05;17.10;53.80
25352;DHT22;13304;48.464;8.712;2023-06-14T05:31:31;17.20;53.90
25352;DHT22;13304;48.464;8.712;2023-06-14T05:33:57;17.30;54.10
25352;DHT22;13304;48.464;8.712;2023-06-14T05:36:23;17.30;54.30
25352;DHT22;13304;48.464;8.712;2023-06-14T05:38:48;17.30;54.50
25352;DHT22;13304;48.464;8.712;2023-06-14T05:41:14;17.40;54.60
25352;DHT22;13304;48.464;8.712;2023-06-14T05:43:40;17.50;54.70
25352;DHT22;13304;48.464;8.712;2023-06-14T05:46:06;17.50;54.80
25352;DHT22;13304;48.464;8.712;2023-06-14T05:48:31;17.60;54.90
25352;DHT22;13304;48.464;8.712;2023-06-14T05:50:58;17.60;55.10
25352;DHT22;13304;48.464;8.712;2023-06-14T05:53:24;17.70;55.10
25352;DHT22;13304;48.464;8.712;2023-06-14T05:55:50;17.70;55.00
25352;DHT22;13304;48.464;8.712;2023-06-14T05:58:20;17.80;55.10
25352;DHT22;13304;48.464;8.712;2023-06-14T06:00:47;17.90;55.90
25352;DHT22;13304;48.464;8.712;2023-06-14T06:03:13;17.90;55.80
25352;DHT22;13304;48.464;8.712;2023-06-14T06:05:39;18.00;55.40
25352;DHT22;13304;48.464;8.712;2023-06-14T06:08:05;18.10;55.40
25352;DHT22;13304;48.464;8.712;2023-06-14T06:10:31;18.20;55.60
25352;DHT22;13304;48.464;8.712;2023-06-14T06:12:57;18.20;55.40
25352;DHT22;13304;48.464;8.712;2023-06-14T06:15:23;18.30;55.30
25352;DHT22;13304;48.464;8.712;2023-06-14T06:17:49;18.40;55.40
25352;DHT22;13304;48.464;8.712;2023-06-14T06:20:14;18.40;54.80
25352;DHT22;13304;48.464;8.712;2023-06-14T06:22:41;18.50;54.60
25352;DHT22;13304;48.464;8.712;2023-06-14T06:25:07;18.60;54.10
25352;DHT22;13304;48.464;8.712;2023-06-14T06:27:34;18.60;54.20
25352;DHT22;13304;48.464;8.712;2023-06-14T06:30:03;18.70;53.70
25352;DHT22;13304;48.464;8.712;2023-06-14T06:32:28;18.80;53.90
25352;DHT22;13304;48.464;8.712;2023-06-14T06:34:54;18.80;52.50
25352;DHT22;13304;48.464;8.712;2023-06-14T06:37:20;18.90;52.10
25352;DHT22;13304;48.464;8.712;2023-06-14T06:39:46;19.00;51.80
25352;DHT22;13304;48.464;8.712;2023-06-14T06:42:12;19.00;51.30
25352;DHT22;13304;48.464;8.712;2023-06-14T06:44:38;19.00;51.20
25352;DHT22;13304;48.464;8.712;2023-06-14T06:47:04;19.10;51.00
25352;DHT22;13304;48.464;8.712;2023-06-14T06:49:30;19.10;50.80
25352;DHT22;13304;48.464;8.712;2023-06-14T06:52:06;19.20;50.60
25352;DHT22;13304;48.464;8.712;2023-06-14T06:54:33;19.20;50.30
25352;DHT22;13304;48.464;8.712;2023-06-14T06:56:59;19.30;50.10
25352;DHT22;13304;48.464;8.712;2023-06-14T06:59:26;19.30;50.40
25352;DHT22;13304;48.464;8.712;2023-06-14T07:01:52;19.40;50.30
25352;DHT22;13304;48.464;8.712;2023-06-14T07:04:17;19.40;50.20
25352;DHT22;13304;48.464;8.712;2023-06-14T07:06:43;19.50;50.60
25352;DHT22;13304;48.464;8.712;2023-06-14T07:09:12;19.50;50.70
25352;DHT22;13304;48.464;8.712;2023-06-14T07:11:40;19.60;50.70
25352;DHT22;13304;48.464;8.712;2023-06-14T07:14:06;19.70;50.70
25352;DHT22;13304;48.464;8.712;2023-06-14T07:16:32;19.70;50.60
25352;DHT22;13304;48.464;8.712;2023-06-14T07:18:58;19.70;50.10
25352;DHT22;13304;48.464;8.712;2023-06-14T07:21:23;19.80;50.40
25352;DHT22;13304;48.464;8.712;2023-06-14T07:23:52;19.90;50.40
25352;DHT22;13304;48.464;8.712;2023-06-14T07:26:18;19.90;50.00
25352;DHT22;13304;48.464;8.712;2023-06-14T07:28:43;20.00;50.00
25352;DHT22;13304;48.464;8.712;2023-06-14T07:31:12;20.10;50.10
25352;DHT22;13304;48.464;8.712;2023-06-14T07:33:38;20.10;50.10
25352;DHT22;13304;48.464;8.712;2023-06-14T07:36:04;20.20;50.60
25352;DHT22;13304;48.464;8.712;2023-06-14T07:38:30;20.30;50.50
25352;DHT22;13304;48.464;8.712;2023-06-14T07:40:55;20.30;50.40
25352;DHT22;13304;48.464;8.712;2023-06-14T07:43:21;20.40;50.00
25352;DHT22;13304;48.464;8.712;2023-06-14T07:45:47;20.50;49.80
25352;DHT22;13304;48.464;8.712;2023-06-14T07:48:13;20.50;49.80
25352;DHT22;13304;48.464;8.712;2023-06-14T07:50:38;20.60;50.10
25352;DHT22;13304;48.464;8.712;2023-06-14T07:53:04;20.70;49.80
25352;DHT22;13304;48.464;8.712;2023-06-14T07:55:30;20.70;48.90
25352;DHT22;13304;48.464;8.712;2023-06-14T07:57:58;20.80;48.80
25352;DHT22;13304;48.464;8.712;2023-06-14T08:00:24;20.90;48.60
25352;DHT22;13304;48.464;8.712;2023-06-14T08:02:49;20.90;48.40
25352;DHT22;13304;48.464;8.712;2023-06-14T08:05:17;21.00;48.30
25352;DHT22;13304;48.464;8.712;2023-06-14T08:07:43;21.10;48.20
25352;DHT22;13304;48.464;8.712;2023-06-14T08:10:09;21.10;47.80
25352;DHT22;13304;48.464;8.712;2023-06-14T08:12:35;21.30;47.70
25352;DHT22;13304;48.464;8.712;2023-06-14T08:15:02;21.30;47.90
25352;DHT22;13304;48.464;8.712;2023-06-14T08:17:28;21.40;47.70
25352;DHT22;13304;48.464;8.712;2023-06-14T08:19:53;21.50;47.90
25352;DHT22;13304;48.464;8.712;2023-06-14T08:22:23;21.50;47.90
25352;DHT22;13304;48.464;8.712;2023-06-14T08:24:50;21.60;47.80
25352;DHT22;13304;48.464;8.712;2023-06-14T08:27:16;21.70;48.10
25352;DHT22;13304;48.464;8.712;2023-06-14T08:29:42;21.80;47.30
25352;DHT22;13304;48.464;8.712;2023-06-14T08:32:08;21.80;47.40
25352;DHT22;13304;48.464;8.712;2023-06-14T08:34:34;21.90;47.50
25352;DHT22;13304;48.464;8.712;2023-06-14T08:37:00;21.90;47.40
25352;DHT22;13304;48.464;8.712;2023-06-14T08:39:27;22.00;46.70
25352;DHT22;13304;48.464;8.712;2023-06-14T08:41:53;22.00;46.40
25352;DHT22;13304;48.464;8.712;2023-06-14T08:44:19;22.10;46.20
25352;DHT22;13304;48.464;8.712;2023-06-14T08:46:47;22.10;45.80
25352;DHT22;13304;48.464;8.712;2023-06-14T08:49:16;22.20;46.40
25352;DHT22;13304;48.464;8.712;2023-06-14T08:51:43;22.20;46.70
25352;DHT22;13304;48.464;8.712;2023-06-14T08:54:11;22.30;46.90
25352;DHT22;13304;48.464;8.712;2023-06-14T08:56:38;22.30;46.50
25352;DHT22;13304;48.464;8.712;2023-06-14T08:59:04;22.40;46.40
25352;DHT22;13304;48.464;8.712;2023-06-14T09:01:36;22.40;45.90
25352;DHT22;13304;48.464;8.712;2023-06-14T09:04:03;22.50;45.60
25352;DHT22;13304;48.464;8.712;2023-06-14T09:06:31;22.50;45.40
25352;DHT22;13304;48.464;8.712;2023-06-14T09:08:58;22.60;45.70
25352;DHT22;13304;48.464;8.712;2023-06-14T09:11:24;22.60;45.10
25352;DHT22;13304;48.464;8.712;2023-06-14T09:13:52;22.70;45.30
25352;DHT22;13304;48.464;8.712;2023-06-14T09:16:18;22.70;45.30
25352;DHT22;13304;48.464;8.712;2023-06-14T09:18:45;22.70;45.10
25352;DHT22;13304;48.464;8.712;2023-06-14T09:21:14;22.80;46.00
25352;DHT22;13304;48.464;8.712;2023-06-14T09:23:42;22.80;44.70
25352;DHT22;13304;48.464;8.712;2023-06-14T09:26:14;22.90;44.40
25352;DHT22;13304;48.464;8.712;2023-06-14T09:28:42;22.90;43.90
25352;DHT22;13304;48.464;8.712;2023-06-14T09:31:13;22.90;42.50
25352;DHT22;13304;48.464;8.712;2023-06-14T09:33:42;23.00;43.50
25352;DHT22;13304;48.464;8.712;2023-06-14T09:36:18;23.10;42.50
25352;DHT22;13304;48.464;8.712;2023-06-14T09:38:57;23.10;41.70
25352;DHT22;13304;48.464;8.712;2023-06-14T09:41:37;23.20;41.00
25352;DHT22;13304;48.464;8.712;2023-06-14T09:44:07;23.20;41.50
25352;DHT22;13304;48.464;8.712;2023-06-14T09:46:34;23.30;41.60
25352;DHT22;13304;48.464;8.712;2023-06-14T09:49:01;23.20;41.10
25352;DHT22;13304;48.464;8.712;2023-06-14T09:51:28;23.30;41.50
25352;DHT22;13304;48.464;8.712;2023-06-14T09:54:01;23.40;41.40
25352;DHT22;13304;48.464;8.712;2023-06-14T09:56:32;23.40;41.30
25352;DHT22;13304;48.464;8.712;2023-06-14T09:59:00;23.50;40.90
25352;DHT22;13304;48.464;8.712;2023-06-14T10:01:31;23.50;41.30
25352;DHT22;13304;48.464;8.712;2023-06-14T10:04:02;23.50;41.30
25352;DHT22;13304;48.464;8.712;2023-06-14T10:06:29;23.60;41.30
25352;DHT22;13304;48.464;8.712;2023-06-14T10:08:59;23.60;41.40
25352;DHT22;13304;48.464;8.712;2023-06-14T10:11:29;23.70;41.20
25352;DHT22;13304;48.464;8.712;2023-06-14T10:13:55;23.70;40.50
25352;DHT22;13304;48.464;8.712;2023-06-14T10:16:31;23.80;40.10
25352;DHT22;13304;48.464;8.712;2023-06-14T10:19:29;23.80;38.90
25352;DHT22;13304;48.464;8.712;2023-06-14T10:22:22;23.80;39.20
25352;DHT22;13304;48.464;8.712;2023-06-14T10:24:50;23.80;39.80
25352;DHT22;13304;48.464;8.712;2023-06-14T10:27:16;23.90;39.70
25352;DHT22;13304;48.464;8.712;2023-06-14T10:32:20;23.90;39.60
25352;DHT22;13304;48.464;8.712;2023-06-14T10:34:49;24.00;39.90
25352;DHT22;13304;48.464;8.712;2023-06-14T10:37:18;24.00;39.30
25352;DHT22;13304;48.464;8.712;2023-06-14T10:39:45;24.10;39.60
25352;DHT22;13304;48.464;8.712;2023-06-14T10:42:15;24.10;39.40
25352;DHT22;13304;48.464;8.712;2023-06-14T10:44:45;24.10;39.10
25352;DHT22;13304;48.464;8.712;2023-06-14T10:47:31;24.20;40.00
25352;DHT22;13304;48.464;8.712;2023-06-14T10:50:06;24.20;39.60
25352;DHT22;13304;48.464;8.712;2023-06-14T10:52:38;24.20;39.10
25352;DHT22;13304;48.464;8.712;2023-06-14T10:57:39;24.30;39.20
25352;DHT22;13304;48.464;8.712;2023-06-14T11:00:07;24.40;39.10
25352;DHT22;13304;48.464;8.712;2023-06-14T11:05:27;24.40;39.70
25352;DHT22;13304;48.464;8.712;2023-06-14T11:10:40;24.40;38.70
25352;DHT22;13304;48.464;8.712;2023-06-14T11:13:09;24.50;39.10
25352;DHT22;13304;48.464;8.712;2023-06-14T11:15:36;24.50;38.30
25352;DHT22;13304;48.464;8.712;2023-06-14T11:18:09;24.50;38.50
25352;DHT22;13304;48.464;8.712;2023-06-14T11:20:36;24.50;38.90
25352;DHT22;13304;48.464;8.712;2023-06-14T11:23:03;24.50;39.00
25352;DHT22;13304;48.464;8.712;2023-06-14T11:25:29;24.50;39.10
25352;DHT22;13304;48.464;8.712;2023-06-14T11:27:55;24.50;39.30
25352;DHT22;13304;48.464;8.712;2023-06-14T11:30:21;24.60;38.40
25352;DHT22;13304;48.464;8.712;2023-06-14T11:32:48;24.60;39.50
25352;DHT22;13304;48.464;8.712;2023-06-14T11:35:15;24.60;38.90
25352;DHT22;13304;48.464;8.712;2023-06-14T11:37:41;24.70;39.00
25352;DHT22;13304;48.464;8.712;2023-06-14T11:40:08;24.80;38.40
25352;DHT22;13304;48.464;8.712;2023-06-14T11:42:36;24.80;38.40
25352;DHT22;13304;48.464;8.712;2023-06-14T11:45:03;24.80;37.80
25352;DHT22;13304;48.464;8.712;2023-06-14T11:47:34;24.80;37.70
25352;DHT22;13304;48.464;8.712;2023-06-14T11:50:01;24.80;37.50
25352;DHT22;13304;48.464;8.712;2023-06-14T11:52:27;24.90;37.80
25352;DHT22;13304;48.464;8.712;2023-06-14T11:54:53;24.90;37.40
25352;DHT22;13304;48.464;8.712;2023-06-14T11:57:20;24.90;37.40
25352;DHT22;13304;48.464;8.712;2023-06-14T11:59:46;24.90;37.20
25352;DHT22;13304;48.464;8.712;2023-06-14T12:02:16;24.90;36.80
25352;DHT22;13304;48.464;8.712;2023-06-14T12:04:49;24.90;36.30
25352;DHT22;13304;48.464;8.712;2023-06-14T12:07:15;24.90;36.40
25352;DHT22;13304;48.464;8.712;2023-06-14T12:10:03;24.90;36.30
25352;DHT22;13304;48.464;8.712;2023-06-14T12:12:35;24.90;36.70
25352;DHT22;13304;48.464;8.712;2023-06-14T12:15:07;25.00;37.20
25352;DHT22;13304;48.464;8.712;2023-06-14T12:17:34;24.90;37.30
25352;DHT22;13304;48.464;8.712;2023-06-14T12:20:05;25.00;37.40
25352;DHT22;13304;48.464;8.712;2023-06-14T12:22:34;24.90;36.70
25352;DHT22;13304;48.464;8.712;2023-06-14T12:25:00;25.00;36.80
25352;DHT22;13304;48.464;8.712;2023-06-14T12:27:25;25.00;37.00
25352;DHT22;13304;48.464;8.712;2023-06-14T12:30:01;25.00;36.90
25352;DHT22;13304;48.464;8.712;2023-06-14T12:32:29;25.00;36.70
25352;DHT22;13304;48.464;8.712;2023-06-14T12:34:55;25.00;37.00
25352;DHT22;13304;48.464;8.712;2023-06-14T12:37:21;25.00;36.90
25352;DHT22;13304;48.464;8.712;2023-06-14T12:39:47;25.00;37.30
25352;DHT22;13304;48.464;8.712;2023-06-14T12:42:13;25.10;37.00
25352;DHT22;13304;48.464;8.712;2023-06-14T12:44:40;25.10;36.70
25352;DHT22;13304;48.464;8.712;2023-06-14T12:47:07;25.10;36.60
25352;DHT22;13304;48.464;8.712;2023-06-14T12:49:33;25.10;36.80
25352;DHT22;13304;48.464;8.712;2023-06-14T12:51:59;25.20;37.40
25352;DHT22;13304;48.464;8.712;2023-06-14T12:54:24;25.20;36.20
25352;DHT22;13304;48.464;8.712;2023-06-14T12:56:53;25.30;36.20
25352;DHT22;13304;48.464;8.712;2023-06-14T12:59:20;25.20;36.50
25352;DHT22;13304;48.464;8.712;2023-06-14T13:01:46;25.30;35.80
25352;DHT22;13304;48.464;8.712;2023-06-14T13:04:15;25.30;35.10
25352;DHT22;13304;48.464;8.712;2023-06-14T13:06:41;25.20;35.40
25352;DHT22;13304;48.464;8.712;2023-06-14T13:09:06;25.20;35.40
25352;DHT22;13304;48.464;8.712;2023-06-14T13:11:33;25.20;35.30
25352;DHT22;13304;48.464;8.712;2023-06-14T13:13:59;25.30;36.10
25352;DHT22;13304;48.464;8.712;2023-06-14T13:16:25;25.30;36.20
25352;DHT22;13304;48.464;8.712;2023-06-14T13:18:51;25.20;36.40
25352;DHT22;13304;48.464;8.712;2023-06-14T13:21:16;25.20;35.70
25352;DHT22;13304;48.464;8.712;2023-06-14T13:23:42;25.20;35.40
25352;DHT22;13304;48.464;8.712;2023-06-14T13:26:07;25.20;35.70
25352;DHT22;13304;48.464;8.712;2023-06-14T13:28:34;25.20;35.60
25352;DHT22;13304;48.464;8.712;2023-06-14T13:31:00;25.20;35.80
25352;DHT22;13304;48.464;8.712;2023-06-14T13:33:27;25.20;35.90
25352;DHT22;13304;48.464;8.712;2023-06-14T13:35:53;25.30;35.60
25352;DHT22;13304;48.464;8.712;2023-06-14T13:38:19;25.30;35.60
25352;DHT22;13304;48.464;8.712;2023-06-14T13:40:44;25.30;35.50
25352;DHT22;13304;48.464;8.712;2023-06-14T13:43:10;25.30;35.60
25352;DHT22;13304;48.464;8.712;2023-06-14T13:45:36;25.40;35.10
25352;DHT22;13304;48.464;8.712;2023-06-14T13:48:02;25.40;34.70
25352;DHT22;13304;48.464;8.712;2023-06-14T13:50:28;25.40;35.40
25352;DHT22;13304;48.464;8.712;2023-06-14T13:52:54;25.40;35.50
25352;DHT22;13304;48.464;8.712;2023-06-14T13:55:19;25.40;35.00
25352;DHT22;13304;48.464;8.712;2023-06-14T13:57:45;25.40;35.00
25352;DHT22;13304;48.464;8.712;2023-06-14T14:00:11;25.40;35.60
25352;DHT22;13304;48.464;8.712;2023-06-14T14:02:37;25.30;35.60
25352;DHT22;13304;48.464;8.712;2023-06-14T14:05:03;25.40;34.80
25352;DHT22;13304;48.464;8.712;2023-06-14T14:07:29;25.40;34.80
25352;DHT22;13304;48.464;8.712;2023-06-14T14:09:55;25.40;34.80
25352;DHT22;13304;48.464;8.712;2023-06-14T14:12:23;25.40;34.80
25352;DHT22;13304;48.464;8.712;2023-06-14T14:14:49;25.50;35.10
25352;DHT22;13304;48.464;8.712;2023-06-14T14:17:15;25.50;35.50
25352;DHT22;13304;48.464;8.712;2023-06-14T14:19:41;25.50;35.90
25352;DHT22;13304;48.464;8.712;2023-06-14T14:22:07;25.50;35.70
25352;DHT22;13304;48.464;8.712;2023-06-14T14:24:33;25.50;35.80
25352;DHT22;13304;48.464;8.712;2023-06-14T14:26:58;25.60;35.90
25352;DHT22;13304;48.464;8.712;2023-06-14T14:29:26;25.70;35.80
25352;DHT22;13304;48.464;8.712;2023-06-14T14:31:55;25.70;35.60
25352;DHT22;13304;48.464;8.712;2023-06-14T14:34:22;25.70;35.90
25352;DHT22;13304;48.464;8.712;2023-06-14T14:36:49;25.90;35.90
25352;DHT22;13304;48.464;8.712;2023-06-14T14:39:14;25.90;35.60
25352;DHT22;13304;48.464;8.712;2023-06-14T14:41:40;26.10;36.10
25352;DHT22;13304;48.464;8.712;2023-06-14T14:44:06;26.10;35.80
25352;DHT22;13304;48.464;8.712;2023-06-14T14:46:32;26.20;35.30
25352;DHT22;13304;48.464;8.712;2023-06-14T14:48:59;26.30;34.40
25352;DHT22;13304;48.464;8.712;2023-06-14T14:51:25;26.40;34.60
25352;DHT22;13304;48.464;8.712;2023-06-14T14:53:51;26.50;34.40
25352;DHT22;13304;48.464;8.712;2023-06-14T14:56:17;26.60;34.10
25352;DHT22;13304;48.464;8.712;2023-06-14T14:58:43;26.70;34.30
25352;DHT22;13304;48.464;8.712;2023-06-14T15:01:09;26.80;34.10
25352;DHT22;13304;48.464;8.712;2023-06-14T15:03:36;26.90;34.40
25352;DHT22;13304;48.464;8.712;2023-06-14T15:06:01;27.00;34.30
25352;DHT22;13304;48.464;8.712;2023-06-14T15:08:27;27.20;34.40
25352;DHT22;13304;48.464;8.712;2023-06-14T15:10:53;27.40;34.50
25352;DHT22;13304;48.464;8.712;2023-06-14T15:13:18;27.50;33.60
25352;DHT22;13304;48.464;8.712;2023-06-14T15:15:45;27.70;33.50
25352;DHT22;13304;48.464;8.712;2023-06-14T15:18:10;27.80;33.30
25352;DHT22;13304;48.464;8.712;2023-06-14T15:20:36;27.90;33.00
25352;DHT22;13304;48.464;8.712;2023-06-14T15:23:02;27.90;32.80
25352;DHT22;13304;48.464;8.712;2023-06-14T15:25:28;27.90;32.80
25352;DHT22;13304;48.464;8.712;2023-06-14T15:27:54;27.80;32.50
25352;DHT22;13304;48.464;8.712;2023-06-14T15:30:21;27.60;32.50
25352;DHT22;13304;48.464;8.712;2023-06-14T15:32:47;27.50;32.80
25352;DHT22;13304;48.464;8.712;2023-06-14T15:35:14;27.40;32.50
25352;DHT22;13304;48.464;8.712;2023-06-14T15:37:43;27.20;33.10
25352;DHT22;13304;48.464;8.712;2023-06-14T15:40:09;27.00;32.90
25352;DHT22;13304;48.464;8.712;2023-06-14T15:42:41;27.00;33.40
25352;DHT22;13304;48.464;8.712;2023-06-14T15:45:07;27.00;33.30
25352;DHT22;13304;48.464;8.712;2023-06-14T15:47:33;27.10;33.40
25352;DHT22;13304;48.464;8.712;2023-06-14T15:49:59;27.20;33.90